createdAt,value
2018-07-27T00:00:31.394Z,3.60
2018-07-27T00:01:31.439Z,3.30
2018-07-27T00:02:31.470Z,3.50
2018-07-27T00:03:31.451Z,3.30
2018-07-27T00:04:31.471Z,3.30
2018-07-27T00:05:31.490Z,3.50
2018-07-27T00:06:31.514Z,3.40
2018-07-27T00:07:31.535Z,3.30
2018-07-27T00:08:31.556Z,3.40
2018-07-27T00:09:31.576Z,3.60
2018-07-27T00:10:31.606Z,3.70
2018-07-27T00:11:31.617Z,3.30
2018-07-27T00:12:31.629Z,3.80
2018-07-27T00:13:31.656Z,3.50
2018-07-27T00:14:31.681Z,3.40
2018-07-27T00:15:31.691Z,3.40
2018-07-27T00:16:31.713Z,3.50
2018-07-27T00:17:31.734Z,3.60
2018-07-27T00:18:31.754Z,3.30
2018-07-27T00:19:31.776Z,3.30
2018-07-27T00:20:31.794Z,3.20
2018-07-27T00:21:31.815Z,3.70
2018-07-27T00:22:31.836Z,3.90
2018-07-27T00:23:31.883Z,3.50
2018-07-27T00:24:31.877Z,3.70
2018-07-27T00:25:31.907Z,3.50
2018-07-27T00:26:31.923Z,3.40
2018-07-27T00:27:32.040Z,3.50
2018-07-27T00:28:32.028Z,3.60
2018-07-27T00:29:31.995Z,3.40
2018-07-27T00:30:32.002Z,3.60
2018-07-27T00:31:32.024Z,3.50
2018-07-27T00:32:32.046Z,3.40
2018-07-27T00:33:32.064Z,3.50
2018-07-27T00:34:32.087Z,3.40
2018-07-27T00:35:32.107Z,3.90
2018-07-27T00:36:32.127Z,3.60
2018-07-27T00:37:32.150Z,3.60
2018-07-27T00:38:32.181Z,3.40
2018-07-27T00:39:32.188Z,3.30
2018-07-27T00:40:32.210Z,3.60
2018-07-27T00:41:32.228Z,3.60
2018-07-27T00:42:32.253Z,3.50
2018-07-27T00:43:32.270Z,3.70
2018-07-27T00:44:32.291Z,3.70
2018-07-27T00:45:32.312Z,3.70
2018-07-27T00:46:32.334Z,3.50
2018-07-27T00:47:32.352Z,3.30
2018-07-27T00:48:32.372Z,3.70
2018-07-27T00:49:32.394Z,3.90
2018-07-27T00:50:32.434Z,3.40
2018-07-27T00:51:32.447Z,3.40
2018-07-27T00:52:32.461Z,3.70
2018-07-27T00:53:32.502Z,3.50
2018-07-27T00:54:32.541Z,3.40
2018-07-27T00:55:32.530Z,3.50
2018-07-27T00:56:32.539Z,3.70
2018-07-27T00:57:32.561Z,3.70
2018-07-27T00:58:32.579Z,3.20
2018-07-27T00:59:32.624Z,3.30
2018-07-27T01:00:32.619Z,3.80
2018-07-27T01:01:32.640Z,3.70
2018-07-27T01:02:32.663Z,3.70
2018-07-27T01:03:32.706Z,3.50
2018-07-27T01:04:33.106Z,3.60
2018-07-27T01:05:33.045Z,3.80
2018-07-27T01:06:33.125Z,3.70
2018-07-27T01:07:32.785Z,3.30
2018-07-27T01:08:32.783Z,3.60
2018-07-27T01:09:32.803Z,3.50
2018-07-27T01:10:32.824Z,3.70
2018-07-27T01:11:32.849Z,3.50
2018-07-27T01:12:32.868Z,3.60
2018-07-27T01:13:32.891Z,3.70
2018-07-27T01:14:32.911Z,3.90
2018-07-27T01:15:32.928Z,3.50
2018-07-27T01:16:32.946Z,3.50
2018-07-27T01:17:32.967Z,3.50
2018-07-27T01:18:32.994Z,3.20
2018-07-27T01:19:33.009Z,3.60
2018-07-27T01:20:33.027Z,3.60
2018-07-27T01:21:33.048Z,3.60
2018-07-27T01:22:33.072Z,3.60
2018-07-27T01:23:33.089Z,3.70
2018-07-27T01:24:33.121Z,3.60
2018-07-27T01:25:33.134Z,3.50
2018-07-27T01:26:33.153Z,3.80
2018-07-27T01:27:33.176Z,3.60
2018-07-27T01:28:33.198Z,3.60
2018-07-27T01:29:33.217Z,3.60
2018-07-27T01:30:33.232Z,3.20
2018-07-27T01:31:33.252Z,3.40
2018-07-27T01:32:33.272Z,4.10
2018-07-27T01:33:33.291Z,3.70
2018-07-27T01:34:33.314Z,3.70
2018-07-27T01:35:33.334Z,3.70
2018-07-27T01:36:33.353Z,3.80
2018-07-27T01:37:33.373Z,3.50
2018-07-27T01:38:33.509Z,3.80
2018-07-27T01:39:33.413Z,3.80
2018-07-27T01:40:33.439Z,3.70
2018-07-27T01:41:33.460Z,3.60
2018-07-27T01:42:33.475Z,3.60
2018-07-27T01:43:33.500Z,3.70
2018-07-27T01:44:33.522Z,3.60
2018-07-27T01:45:33.535Z,4.10
2018-07-27T01:46:33.554Z,3.50
2018-07-27T01:47:33.625Z,4.00
2018-07-27T01:48:33.596Z,3.60
2018-07-27T01:50:18.049Z,3.70
2018-07-27T01:52:18.086Z,3.80
2018-07-27T01:53:18.111Z,3.60
2018-07-27T01:54:18.128Z,4.10
2018-07-27T01:55:18.149Z,3.90
2018-07-27T01:56:18.169Z,3.90
2018-07-27T01:57:18.191Z,3.90
2018-07-27T01:58:18.208Z,3.90
2018-07-27T01:59:18.224Z,3.70
2018-07-27T02:00:18.245Z,3.60
2018-07-27T02:01:18.269Z,3.70
2018-07-27T02:02:18.290Z,3.80
2018-07-27T02:03:18.302Z,3.50
2018-07-27T02:04:18.321Z,3.90
2018-07-27T02:05:18.338Z,3.80
2018-07-27T02:06:18.357Z,3.60
2018-07-27T02:07:18.380Z,3.90
2018-07-27T02:08:18.395Z,4.00
2018-07-27T02:09:18.419Z,4.10
2018-07-27T02:10:18.542Z,4.10
2018-07-27T02:11:18.605Z,3.80
2018-07-27T02:12:18.491Z,4.10
2018-07-27T02:13:19.159Z,3.90
2018-07-27T02:14:18.582Z,4.20
2018-07-27T02:15:18.533Z,3.70
2018-07-27T02:16:18.544Z,4.00
2018-07-27T02:17:18.566Z,4.00
2018-07-27T02:18:18.585Z,4.10
2018-07-27T02:19:18.601Z,3.50
2018-07-27T02:20:18.621Z,4.20
2018-07-27T02:21:18.642Z,3.60
2018-07-27T02:22:18.662Z,3.70
2018-07-27T02:23:18.675Z,4.10
2018-07-27T02:24:18.695Z,3.60
2018-07-27T02:25:18.712Z,4.00
2018-07-27T02:26:18.731Z,3.90
2018-07-27T02:27:19.620Z,3.90
2018-07-27T02:28:18.769Z,4.10
2018-07-27T02:29:18.789Z,4.20
2018-07-27T02:30:18.809Z,4.00
2018-07-27T02:31:18.823Z,3.70
2018-07-27T02:32:18.845Z,4.00
2018-07-27T02:33:18.864Z,3.80
2018-07-27T02:34:18.876Z,4.40
2018-07-27T02:35:18.897Z,4.00
2018-07-27T02:36:18.917Z,4.50
2018-07-27T02:37:18.939Z,3.90
2018-07-27T02:38:18.955Z,4.00
2018-07-27T02:39:18.973Z,4.00
2018-07-27T02:40:19.005Z,3.80
2018-07-27T02:41:19.014Z,4.50
2018-07-27T02:42:19.025Z,4.10
2018-07-27T02:43:19.045Z,4.00
2018-07-27T02:46:19.576Z,3.90
2018-07-27T02:47:19.114Z,4.10
2018-07-27T02:48:19.134Z,3.80
2018-07-27T02:49:19.154Z,4.10
2018-07-27T02:50:19.178Z,4.40
2018-07-27T02:51:19.226Z,4.10
2018-07-27T02:52:19.211Z,3.80
2018-07-27T02:53:19.227Z,4.10
2018-07-27T02:54:19.247Z,4.10
2018-07-27T02:55:19.263Z,4.40
2018-07-27T02:56:19.290Z,4.10
2018-07-27T02:57:19.302Z,4.00
2018-07-27T02:58:19.326Z,3.90
2018-07-27T02:59:19.334Z,3.90
2018-07-27T03:00:19.366Z,3.70
2018-07-27T03:01:19.376Z,3.80
2018-07-27T03:02:19.390Z,4.10
2018-07-27T03:03:19.410Z,4.00
2018-07-27T03:04:19.426Z,4.10
2018-07-27T03:05:19.445Z,4.10
2018-07-27T03:06:19.473Z,4.20
2018-07-27T03:07:19.479Z,3.70
2018-07-27T03:08:19.502Z,4.00
2018-07-27T03:09:19.565Z,4.30
2018-07-27T03:10:19.534Z,3.90
2018-07-27T03:11:19.551Z,4.00
2018-07-27T03:12:19.568Z,4.30
2018-07-27T03:13:19.589Z,4.10
2018-07-27T03:14:19.606Z,4.20
2018-07-27T03:15:19.653Z,4.10
2018-07-27T03:16:19.644Z,4.00
2018-07-27T03:17:19.761Z,3.80
2018-07-27T03:18:19.686Z,4.20
2018-07-27T03:19:19.700Z,4.50
2018-07-27T03:20:19.736Z,3.90
2018-07-27T03:21:19.749Z,3.90
2018-07-27T03:22:19.785Z,4.30
2018-07-27T03:23:19.771Z,3.90
2018-07-27T03:24:19.786Z,4.10
2018-07-27T03:25:19.805Z,4.80
2018-07-27T03:26:19.826Z,5.00
2018-07-27T03:27:19.844Z,4.60
2018-07-27T03:28:19.858Z,4.90
2018-07-27T03:29:19.876Z,4.60
2018-07-27T03:30:19.915Z,4.50
2018-07-27T03:31:19.915Z,4.90
2018-07-27T03:32:19.933Z,5.10
2018-07-27T03:33:19.952Z,4.80
2018-07-27T03:34:19.975Z,4.80
2018-07-27T03:35:20.003Z,4.80
2018-07-27T03:36:20.003Z,4.50
2018-07-27T03:37:20.024Z,4.80
2018-07-27T03:38:20.079Z,4.30
2018-07-27T03:39:20.058Z,4.40
2018-07-27T03:40:20.079Z,4.90
2018-07-27T03:41:20.100Z,4.70
2018-07-27T03:42:20.115Z,4.70
2018-07-27T03:43:20.167Z,4.90
2018-07-27T03:44:20.147Z,4.70
2018-07-27T03:45:20.165Z,4.50
2018-07-27T03:46:20.187Z,4.40
2018-07-27T03:47:20.212Z,4.50
2018-07-27T03:48:20.229Z,4.80
2018-07-27T03:49:20.613Z,4.50
2018-07-27T03:51:20.278Z,4.40
2018-07-27T03:52:20.315Z,4.40
2018-07-27T03:53:20.309Z,4.60
2018-07-27T03:54:20.356Z,4.40
2018-07-27T03:55:20.344Z,4.30
2018-07-27T03:56:20.362Z,4.70
2018-07-27T03:57:20.380Z,4.20
2018-07-27T03:58:20.400Z,5.20
2018-07-27T03:59:20.443Z,4.70
2018-07-27T04:00:20.447Z,4.40
2018-07-27T04:01:20.452Z,4.20
2018-07-27T04:02:20.532Z,4.60
2018-07-27T04:03:20.500Z,4.70
2018-07-27T04:04:20.509Z,4.70
2018-07-27T04:05:20.524Z,4.70
2018-07-27T04:06:20.565Z,4.80
2018-07-27T04:07:20.626Z,4.40
2018-07-27T04:08:20.583Z,4.60
2018-07-27T04:09:20.616Z,4.60
2018-07-27T04:10:20.615Z,4.50
2018-07-27T04:11:20.629Z,4.70
2018-07-27T04:12:20.649Z,4.50
2018-07-27T04:13:20.676Z,4.30
2018-07-27T04:14:20.687Z,4.70
2018-07-27T04:15:20.762Z,4.50
2018-07-27T04:16:20.738Z,4.50
2018-07-27T04:17:20.741Z,4.40
2018-07-27T04:18:20.756Z,4.30
2018-07-27T04:19:20.776Z,4.60
2018-07-27T04:20:20.797Z,4.60
2018-07-27T04:21:20.816Z,4.30
2018-07-27T04:22:20.836Z,5.10
2018-07-27T04:24:20.964Z,4.40
2018-07-27T04:25:21.051Z,4.60
2018-07-27T04:26:20.918Z,3.90
2018-07-27T04:27:20.936Z,5.10
2018-07-27T04:28:20.936Z,4.60
2018-07-27T04:29:20.956Z,4.60
2018-07-27T04:30:20.973Z,4.80
2018-07-27T04:31:20.990Z,4.40
2018-07-27T04:32:21.048Z,5.00
2018-07-27T04:33:21.027Z,4.50
2018-07-27T04:34:21.043Z,4.70
2018-07-27T04:35:21.061Z,4.30
2018-07-27T04:36:21.087Z,4.60
2018-07-27T04:37:21.175Z,4.90
2018-07-27T04:38:21.119Z,4.30
2018-07-27T04:39:21.132Z,4.90
2018-07-27T04:40:21.148Z,4.60
2018-07-27T04:41:21.176Z,4.60
2018-07-27T04:42:21.185Z,4.90
2018-07-27T04:43:21.203Z,4.10
2018-07-27T04:44:21.228Z,4.70
2018-07-27T04:45:21.255Z,4.30
2018-07-27T04:46:21.260Z,5.00
2018-07-27T04:47:21.338Z,4.70
2018-07-27T04:48:21.308Z,4.50
2018-07-27T04:49:22.412Z,4.70
2018-07-27T04:50:21.339Z,4.60
2018-07-27T04:51:21.346Z,4.60
2018-07-27T04:53:21.420Z,4.70
2018-07-27T04:54:21.404Z,4.90
2018-07-27T04:55:21.428Z,4.70
2018-07-27T04:56:21.780Z,5.00
2018-07-27T04:57:21.573Z,4.70
2018-07-27T04:58:21.603Z,4.90
2018-07-27T04:59:21.896Z,4.80
2018-07-27T05:00:22.072Z,4.90
2018-07-27T05:01:21.525Z,4.80
2018-07-27T05:02:21.544Z,5.00
2018-07-27T05:03:21.562Z,4.70
2018-07-27T05:04:21.580Z,4.80
2018-07-27T05:05:21.620Z,5.30
2018-07-27T05:06:21.619Z,4.80
2018-07-27T05:07:21.638Z,5.20
2018-07-27T05:08:21.652Z,4.90
2018-07-27T05:09:21.669Z,4.60
2018-07-27T05:10:21.696Z,4.90
2018-07-27T05:11:21.712Z,4.80
2018-07-27T05:12:21.722Z,4.70
2018-07-27T05:13:21.733Z,4.80
2018-07-27T05:14:21.750Z,5.20
2018-07-27T05:15:21.770Z,4.70
2018-07-27T05:16:21.785Z,4.20
2018-07-27T05:17:21.803Z,5.10
2018-07-27T05:18:21.884Z,4.50
2018-07-27T05:19:21.843Z,4.70
2018-07-27T05:20:21.857Z,5.10
2018-07-27T05:21:21.878Z,4.80
2018-07-27T05:22:21.899Z,4.50
2018-07-27T05:23:21.911Z,5.20
2018-07-27T05:24:21.934Z,4.70
2018-07-27T05:25:22.125Z,5.00
2018-07-27T05:26:21.968Z,5.00
2018-07-27T05:27:21.983Z,4.90
2018-07-27T05:28:22.005Z,4.80
2018-07-27T05:29:22.020Z,4.90
2018-07-27T05:30:22.041Z,4.90
2018-07-27T05:31:22.189Z,5.10
2018-07-27T05:32:22.522Z,5.40
2018-07-27T05:34:22.151Z,5.20
2018-07-27T05:35:22.130Z,5.00
2018-07-27T05:36:22.146Z,5.40
2018-07-27T05:37:22.166Z,5.10
2018-07-27T05:38:22.184Z,4.90
2018-07-27T05:39:22.199Z,4.70
2018-07-27T05:40:22.239Z,8.10
2018-07-27T05:41:22.243Z,5.60
2018-07-27T05:42:22.258Z,5.30
2018-07-27T05:43:22.274Z,4.60
2018-07-27T05:44:22.298Z,5.40
2018-07-27T05:45:22.311Z,4.80
2018-07-27T05:46:22.327Z,5.20
2018-07-27T05:47:22.345Z,5.30
2018-07-27T05:48:22.372Z,5.40
2018-07-27T05:49:22.394Z,4.90
2018-07-27T05:50:22.404Z,5.50
2018-07-27T05:51:22.421Z,4.90
2018-07-27T05:52:22.437Z,5.10
2018-07-27T05:53:22.454Z,5.60
2018-07-27T05:54:22.474Z,5.30
2018-07-27T05:55:22.492Z,5.10
2018-07-27T05:56:22.632Z,5.10
2018-07-27T05:57:22.535Z,4.80
2018-07-27T05:58:22.546Z,4.60
2018-07-27T05:59:22.585Z,5.10
2018-07-27T06:00:22.607Z,4.60
2018-07-27T06:01:22.614Z,5.10
2018-07-27T06:02:22.638Z,4.60
2018-07-27T06:03:23.068Z,4.90
2018-07-27T06:04:22.660Z,5.30
2018-07-27T06:05:22.682Z,4.80
2018-07-27T06:06:22.749Z,4.70
2018-07-27T06:07:22.739Z,5.30
2018-07-27T06:08:22.736Z,4.70
2018-07-27T06:09:22.745Z,5.00
2018-07-27T06:10:24.173Z,4.80
2018-07-27T06:11:22.785Z,5.10
2018-07-27T06:12:23.053Z,5.10
2018-07-27T06:13:22.826Z,5.30
2018-07-27T06:14:22.893Z,5.10
2018-07-27T06:15:22.860Z,5.20
2018-07-27T06:16:22.872Z,5.00
2018-07-27T06:17:24.773Z,5.10
2018-07-27T06:18:23.168Z,4.90
2018-07-27T06:19:22.931Z,4.80
2018-07-27T06:20:22.955Z,4.80
2018-07-27T06:21:23.599Z,5.00
2018-07-27T06:22:23.038Z,5.10
2018-07-27T06:23:23.005Z,4.90
2018-07-27T06:24:23.088Z,4.80
2018-07-27T06:25:23.053Z,5.10
2018-07-27T06:26:23.057Z,4.90
2018-07-27T06:27:23.076Z,5.30
2018-07-27T06:28:23.098Z,5.10
2018-07-27T06:29:23.122Z,5.50
2018-07-27T06:30:23.167Z,5.00
2018-07-27T06:31:23.149Z,4.80
2018-07-27T06:32:23.175Z,5.30
2018-07-27T06:33:23.196Z,4.90
2018-07-27T06:34:23.211Z,5.30
2018-07-27T06:35:23.232Z,5.30
2018-07-27T06:36:23.242Z,5.00
2018-07-27T06:37:23.362Z,5.40
2018-07-27T06:38:23.290Z,5.00
2018-07-27T06:39:23.305Z,5.20
2018-07-27T06:40:23.499Z,5.10
2018-07-27T06:41:23.367Z,5.20
2018-07-27T06:42:23.355Z,5.20
2018-07-27T06:43:23.377Z,4.90
2018-07-27T06:44:23.402Z,5.20
2018-07-27T06:45:23.702Z,5.50
2018-07-27T06:46:23.464Z,4.90
2018-07-27T06:47:23.450Z,5.30
2018-07-27T06:48:23.476Z,5.20
2018-07-27T06:49:23.494Z,5.60
2018-07-27T06:50:23.508Z,5.10
2018-07-27T06:51:23.523Z,5.20
2018-07-27T06:52:23.578Z,6.10
2018-07-27T06:53:23.561Z,5.10
2018-07-27T06:54:23.580Z,5.10
2018-07-27T06:55:23.596Z,5.50
2018-07-27T06:56:23.618Z,5.30
2018-07-27T06:57:23.648Z,4.80
2018-07-27T06:58:23.655Z,5.10
2018-07-27T06:59:23.670Z,5.00
2018-07-27T07:00:24.000Z,5.20
2018-07-27T07:01:23.715Z,5.50
2018-07-27T07:02:23.728Z,5.00
2018-07-27T07:03:23.812Z,5.10
2018-07-27T07:04:23.763Z,5.80
2018-07-27T07:05:23.794Z,5.40
2018-07-27T07:06:23.819Z,5.60
2018-07-27T07:07:23.820Z,5.60
2018-07-27T07:08:23.864Z,4.90
2018-07-27T07:09:23.870Z,5.10
2018-07-27T07:10:24.083Z,5.40
2018-07-27T07:11:23.902Z,5.20
2018-07-27T07:12:23.921Z,5.20
2018-07-27T07:13:23.941Z,5.10
2018-07-27T07:14:24.379Z,5.20
2018-07-27T07:15:24.022Z,5.30
2018-07-27T07:16:24.015Z,5.40
2018-07-27T07:17:24.012Z,5.20
2018-07-27T07:18:24.030Z,5.50
2018-07-27T07:19:24.050Z,5.20
2018-07-27T07:20:24.067Z,5.30
2018-07-27T07:21:24.086Z,5.70
2018-07-27T07:22:24.108Z,5.30
2018-07-27T07:23:24.214Z,5.20
2018-07-27T07:24:24.145Z,5.10
2018-07-27T07:25:24.304Z,5.20
2018-07-27T07:26:24.182Z,5.50
2018-07-27T07:27:24.208Z,5.10
2018-07-27T07:28:24.478Z,5.30
2018-07-27T07:29:24.247Z,5.50
2018-07-27T07:30:24.258Z,5.30
2018-07-27T07:31:24.290Z,5.20
2018-07-27T07:32:24.297Z,5.00
2018-07-27T07:34:24.350Z,5.40
2018-07-27T07:35:24.356Z,5.20
2018-07-27T07:36:24.368Z,5.30
2018-07-27T07:37:24.391Z,5.30
2018-07-27T07:38:24.411Z,5.40
2018-07-27T07:39:24.438Z,5.30
2018-07-27T07:40:24.449Z,5.10
2018-07-27T07:41:24.468Z,5.30
2018-07-27T07:42:24.543Z,5.60
2018-07-27T07:43:24.506Z,4.90
2018-07-27T07:44:24.521Z,5.80
2018-07-27T07:46:24.777Z,4.90
2018-07-27T07:47:25.169Z,5.60
2018-07-27T07:48:24.641Z,5.20
2018-07-27T07:49:24.653Z,5.50
2018-07-27T07:50:25.072Z,5.00
2018-07-27T07:51:24.666Z,5.20
2018-07-27T07:52:24.674Z,5.20
2018-07-27T07:53:24.696Z,4.90
2018-07-27T07:54:24.725Z,5.90
2018-07-27T07:55:24.732Z,4.90
2018-07-27T07:56:24.771Z,5.50
2018-07-27T07:58:24.792Z,5.30
2018-07-27T07:59:24.812Z,5.30
2018-07-27T08:00:24.839Z,5.20
2018-07-27T08:01:24.851Z,5.10
2018-07-27T08:02:24.868Z,5.40
2018-07-27T08:03:24.908Z,5.30
2018-07-27T08:04:24.961Z,5.50
2018-07-27T08:05:24.981Z,5.40
2018-07-27T08:06:24.949Z,5.10
2018-07-27T08:07:24.969Z,5.40
2018-07-27T08:08:24.990Z,5.30
2018-07-27T08:09:25.007Z,5.50
2018-07-27T08:10:25.045Z,5.00
2018-07-27T08:11:25.041Z,5.10
2018-07-27T08:12:25.063Z,5.30
2018-07-27T08:14:25.400Z,5.00
2018-07-27T08:17:25.562Z,5.30
2018-07-27T08:18:25.180Z,5.50
2018-07-27T08:19:25.200Z,5.30
2018-07-27T08:20:25.222Z,4.90
2018-07-27T08:21:25.252Z,5.40
2018-07-27T08:22:25.284Z,5.50
2018-07-27T08:23:25.282Z,5.40
2018-07-27T08:24:25.296Z,5.20
2018-07-27T08:25:25.316Z,5.40
2018-07-27T08:26:25.336Z,5.50
2018-07-27T08:27:25.826Z,5.20
2018-07-27T08:28:25.374Z,5.50
2018-07-27T08:29:25.398Z,5.00
2018-07-27T08:30:25.415Z,5.50
2018-07-27T08:31:25.434Z,5.20
2018-07-27T08:32:25.454Z,5.40
2018-07-27T08:33:25.478Z,4.90
2018-07-27T08:34:25.509Z,5.10
2018-07-27T08:35:25.513Z,5.20
2018-07-27T08:36:25.537Z,4.90
2018-07-27T08:37:25.567Z,5.10
2018-07-27T08:38:25.574Z,5.00
2018-07-27T08:39:25.616Z,5.10
2018-07-27T08:40:25.629Z,5.10
2018-07-27T08:41:25.639Z,5.00
2018-07-27T08:42:26.011Z,5.40
2018-07-27T08:43:25.672Z,5.50
2018-07-27T08:44:25.706Z,5.30
2018-07-27T08:45:25.716Z,5.40
2018-07-27T08:46:25.742Z,5.50
2018-07-27T08:47:25.754Z,5.40
2018-07-27T08:48:25.820Z,5.40
2018-07-27T08:49:25.791Z,5.20
2018-07-27T08:50:25.816Z,5.40
2018-07-27T08:51:25.847Z,5.50
2018-07-27T08:52:25.859Z,5.90
2018-07-27T08:53:25.879Z,4.80
2018-07-27T08:54:25.897Z,4.50
2018-07-27T08:55:25.965Z,5.20
2018-07-27T08:56:26.276Z,5.00
2018-07-27T08:57:25.951Z,5.20
2018-07-27T08:58:26.018Z,5.40
2018-07-27T08:59:25.990Z,5.40
2018-07-27T09:00:26.011Z,5.30
2018-07-27T09:01:26.062Z,4.90
2018-07-27T09:02:26.091Z,5.10
2018-07-27T09:03:26.077Z,5.30
2018-07-27T09:04:26.097Z,4.90
2018-07-27T09:05:26.124Z,5.20
2018-07-27T09:06:26.580Z,5.40
2018-07-27T09:07:26.152Z,5.10
2018-07-27T09:08:26.172Z,4.80
2018-07-27T09:09:26.196Z,4.90
2018-07-27T09:10:26.216Z,5.20
2018-07-27T09:11:26.237Z,5.10
2018-07-27T09:12:26.256Z,5.30
2018-07-27T09:13:26.275Z,5.50
2018-07-27T09:14:26.294Z,5.30
2018-07-27T09:15:26.320Z,5.70
2018-07-27T09:16:26.333Z,5.20
2018-07-27T09:17:26.401Z,4.80
2018-07-27T09:18:26.374Z,4.60
2018-07-27T09:19:26.400Z,4.70
2018-07-27T09:20:26.414Z,5.00
2018-07-27T09:21:26.459Z,4.80
2018-07-27T09:22:26.457Z,5.00
2018-07-27T09:23:26.482Z,4.80
2018-07-27T09:24:26.671Z,5.00
2018-07-27T09:25:26.602Z,4.70
2018-07-27T09:26:26.548Z,4.80
2018-07-27T09:27:26.561Z,4.70
2018-07-27T09:28:26.587Z,6.00
2018-07-27T09:29:26.646Z,4.70
2018-07-27T09:30:26.640Z,4.70
2018-07-27T09:31:26.984Z,4.60
2018-07-27T09:32:26.713Z,4.40
2018-07-27T09:33:26.683Z,4.30
2018-07-27T09:34:26.700Z,4.30
2018-07-27T09:35:26.742Z,4.50
2018-07-27T09:36:26.756Z,3.80
2018-07-27T09:37:26.767Z,4.00
2018-07-27T09:38:26.788Z,4.10
2018-07-27T09:39:26.809Z,4.30
2018-07-27T09:40:27.483Z,4.20
2018-07-27T09:41:26.858Z,4.30
2018-07-27T09:42:26.868Z,4.10
2018-07-27T09:43:26.883Z,4.10
2018-07-27T09:44:26.905Z,4.00
2018-07-27T09:45:26.927Z,4.40
2018-07-27T09:46:26.974Z,4.40
2018-07-27T09:47:26.996Z,4.40
2018-07-27T09:48:27.003Z,4.10
2018-07-27T09:49:27.005Z,4.50
2018-07-27T09:50:27.034Z,4.30
2018-07-27T09:51:27.049Z,3.80
2018-07-27T09:52:27.070Z,4.10
2018-07-27T09:53:27.091Z,4.30
2018-07-27T09:54:27.112Z,4.80
2018-07-27T09:55:27.131Z,4.50
2018-07-27T09:56:27.154Z,4.10
2018-07-27T09:57:27.203Z,4.60
2018-07-27T09:58:27.193Z,4.60
2018-07-27T09:59:27.222Z,5.00
2018-07-27T10:00:27.324Z,4.80
2018-07-27T10:01:27.715Z,4.90
2018-07-27T10:03:27.357Z,4.80
2018-07-27T10:04:27.322Z,4.50
2018-07-27T10:05:27.348Z,5.00
2018-07-27T10:06:27.585Z,4.20
2018-07-27T10:07:27.397Z,4.80
2018-07-27T10:08:27.398Z,4.90
2018-07-27T10:09:27.421Z,4.80
2018-07-27T10:10:27.441Z,4.90
2018-07-27T10:11:27.459Z,4.40
2018-07-27T10:12:27.485Z,3.90
2018-07-27T10:13:27.505Z,4.60
2018-07-27T10:14:27.529Z,4.60
2018-07-27T10:15:27.554Z,4.30
2018-07-27T10:16:27.613Z,4.90
2018-07-27T10:17:27.587Z,4.40
2018-07-27T10:18:27.621Z,4.00
2018-07-27T10:19:27.638Z,4.70
2018-07-27T10:20:27.667Z,4.40
2018-07-27T10:21:27.692Z,4.60
2018-07-27T10:22:27.697Z,12.60
2018-07-27T10:23:27.713Z,4.40
2018-07-27T10:24:27.737Z,4.50
2018-07-27T10:25:27.755Z,4.70
2018-07-27T10:26:27.774Z,4.40
2018-07-27T10:27:27.800Z,4.50
2018-07-27T10:28:27.818Z,4.40
2018-07-27T10:29:27.834Z,4.50
2018-07-27T10:30:27.857Z,4.50
2018-07-27T10:31:27.878Z,4.50
2018-07-27T10:32:27.899Z,4.20
2018-07-27T10:33:27.927Z,3.80
2018-07-27T10:34:27.943Z,3.70
2018-07-27T10:35:27.971Z,4.00
2018-07-27T10:36:28.296Z,4.30
2018-07-27T10:37:28.005Z,4.20
2018-07-27T10:38:28.049Z,3.90
2018-07-27T10:39:28.045Z,3.80
2018-07-27T10:40:28.071Z,3.70
2018-07-27T10:41:28.093Z,3.90
2018-07-27T10:42:28.108Z,3.80
2018-07-27T10:43:28.137Z,3.80
2018-07-27T10:44:28.148Z,4.30
2018-07-27T10:45:28.168Z,3.90
2018-07-27T10:46:28.195Z,3.70
2018-07-27T10:47:28.247Z,4.30
2018-07-27T10:48:28.233Z,3.80
2018-07-27T10:49:29.061Z,3.50
2018-07-27T10:50:28.280Z,4.70
2018-07-27T10:51:28.298Z,4.00
2018-07-27T10:52:28.319Z,4.50
2018-07-27T10:53:28.376Z,3.70
2018-07-27T10:54:28.362Z,4.20
2018-07-27T10:55:28.386Z,4.00
2018-07-27T10:56:28.474Z,3.60
2018-07-27T10:57:28.428Z,3.50
2018-07-27T10:58:28.443Z,3.80
2018-07-27T10:59:28.466Z,4.00
2018-07-27T11:00:28.491Z,4.10
2018-07-27T11:01:28.512Z,3.80
2018-07-27T11:02:28.565Z,4.00
2018-07-27T11:03:28.549Z,4.10
2018-07-27T11:04:28.591Z,3.70
2018-07-27T11:05:28.594Z,3.70
2018-07-27T11:06:28.619Z,3.60
2018-07-27T11:07:28.637Z,3.90
2018-07-27T11:08:28.660Z,4.00
2018-07-27T11:09:28.702Z,3.80
2018-07-27T11:10:28.799Z,3.80
2018-07-27T11:11:28.783Z,3.40
2018-07-27T11:12:28.780Z,3.90
2018-07-27T11:13:28.825Z,3.80
2018-07-27T11:14:28.793Z,3.60
2018-07-27T11:15:28.805Z,3.40
2018-07-27T11:16:28.881Z,3.90
2018-07-27T11:17:28.951Z,3.60
2018-07-27T11:18:28.882Z,3.60
2018-07-27T11:19:28.904Z,3.70
2018-07-27T11:20:28.909Z,4.00
2018-07-27T11:21:28.937Z,3.60
2018-07-27T11:22:28.947Z,3.90
2018-07-27T11:23:28.967Z,3.50
2018-07-27T11:24:28.997Z,3.60
2018-07-27T11:25:29.024Z,3.60
2018-07-27T11:26:29.035Z,3.60
2018-07-27T11:27:29.053Z,3.90
2018-07-27T11:28:29.093Z,3.40
2018-07-27T11:29:29.101Z,3.50
2018-07-27T11:30:29.122Z,3.30
2018-07-27T11:31:29.146Z,3.20
2018-07-27T11:32:29.164Z,3.40
2018-07-27T11:33:29.191Z,3.20
2018-07-27T11:34:29.203Z,3.40
2018-07-27T11:35:29.238Z,3.30
2018-07-27T11:36:29.250Z,3.40
2018-07-27T11:37:29.307Z,3.40
2018-07-27T11:38:29.290Z,3.20
2018-07-27T11:39:29.309Z,3.50
2018-07-27T11:40:29.331Z,3.20
2018-07-27T11:41:29.356Z,2.90
2018-07-27T11:42:29.384Z,3.30
2018-07-27T11:43:29.406Z,3.20
2018-07-27T11:44:29.893Z,3.20
2018-07-27T11:45:30.811Z,2.90
2018-07-27T11:46:29.474Z,3.30
2018-07-27T11:47:29.563Z,2.90
2018-07-27T11:48:29.990Z,2.70
2018-07-27T11:49:29.542Z,2.70
2018-07-27T11:50:29.565Z,2.80
2018-07-27T11:51:29.569Z,3.00
2018-07-27T11:52:29.588Z,3.00
2018-07-27T11:53:29.609Z,2.80
2018-07-27T11:54:29.634Z,3.00
2018-07-27T11:55:29.665Z,3.20
2018-07-27T11:56:29.676Z,3.10
2018-07-27T11:57:29.695Z,3.20
2018-07-27T11:58:29.847Z,2.90
2018-07-27T11:59:29.744Z,3.10
2018-07-27T12:00:29.761Z,3.10
2018-07-27T12:01:29.787Z,2.90
2018-07-27T12:02:29.804Z,2.80
2018-07-27T12:03:29.832Z,2.90
2018-07-27T12:04:29.849Z,2.80
2018-07-27T12:05:29.883Z,2.70
2018-07-27T12:06:29.895Z,2.70
2018-07-27T12:07:29.916Z,2.50
2018-07-27T12:08:29.939Z,2.80
2018-07-27T12:09:29.955Z,2.90
2018-07-27T12:10:29.978Z,2.90
2018-07-27T12:11:29.997Z,3.10
2018-07-27T12:12:30.018Z,2.80
2018-07-27T12:13:30.042Z,2.80
2018-07-27T12:14:30.174Z,3.00
2018-07-27T12:15:30.085Z,3.10
2018-07-27T12:16:30.123Z,2.90
2018-07-27T12:17:30.129Z,2.60
2018-07-27T12:18:30.158Z,3.10
2018-07-27T12:19:30.187Z,2.80
2018-07-27T12:21:30.463Z,2.90
2018-07-27T12:22:30.507Z,3.10
2018-07-27T12:23:30.286Z,3.50
2018-07-27T12:24:30.278Z,3.30
2018-07-27T12:25:30.301Z,3.60
2018-07-27T12:26:30.325Z,3.40
2018-07-27T12:27:30.347Z,3.50
2018-07-27T12:28:30.369Z,3.80
2018-07-27T12:29:30.393Z,3.30
2018-07-27T12:30:30.411Z,3.10
2018-07-27T12:31:30.437Z,3.60
2018-07-27T12:32:30.456Z,3.70
2018-07-27T12:33:30.477Z,3.40
2018-07-27T12:34:30.498Z,3.30
2018-07-27T12:35:30.523Z,3.50
2018-07-27T12:36:30.542Z,4.00
2018-07-27T12:37:30.565Z,3.90
2018-07-27T12:38:30.586Z,3.90
2018-07-27T12:39:30.627Z,4.00
2018-07-27T12:40:30.630Z,3.90
2018-07-27T12:41:30.654Z,3.60
2018-07-27T12:42:30.678Z,4.30
2018-07-27T12:43:30.696Z,3.90
2018-07-27T12:44:30.719Z,3.80
2018-07-27T12:45:30.747Z,3.80
2018-07-27T12:46:30.763Z,3.70
2018-07-27T12:47:30.786Z,3.60
2018-07-27T12:48:30.808Z,3.70
2018-07-27T12:49:30.839Z,4.00
2018-07-27T12:50:30.853Z,3.90
2018-07-27T12:51:30.885Z,3.60
2018-07-27T12:52:30.895Z,3.40
2018-07-27T12:53:30.926Z,3.60
2018-07-27T12:54:31.149Z,3.60
2018-07-27T12:55:31.061Z,3.50
2018-07-27T12:56:30.985Z,3.60
2018-07-27T12:57:31.063Z,3.60
2018-07-27T12:58:31.032Z,3.60
2018-07-27T12:59:31.095Z,3.90
2018-07-27T13:00:31.078Z,4.00
2018-07-27T13:01:31.103Z,4.10
2018-07-27T13:02:31.127Z,3.30
2018-07-27T13:03:31.154Z,3.70
2018-07-27T13:04:31.180Z,3.90
2018-07-27T13:05:31.222Z,3.80
2018-07-27T13:06:31.227Z,3.90
2018-07-27T13:07:31.251Z,4.30
2018-07-27T13:08:31.284Z,4.00
2018-07-27T13:09:31.308Z,4.20
2018-07-27T13:10:31.351Z,4.20
2018-07-27T13:11:31.355Z,4.20
2018-07-27T13:12:31.396Z,4.20
2018-07-27T13:13:31.451Z,4.50
2018-07-27T13:14:31.535Z,4.50
2018-07-27T13:15:31.506Z,4.80
2018-07-27T13:16:31.494Z,5.00
2018-07-27T13:17:31.528Z,4.40
2018-07-27T13:18:31.553Z,5.40
2018-07-27T13:19:31.622Z,5.20
2018-07-27T13:20:31.650Z,5.60
2018-07-27T13:21:31.637Z,5.70
2018-07-27T13:22:31.743Z,5.70
2018-07-27T13:23:31.684Z,5.80
2018-07-27T13:25:31.771Z,6.50
2018-07-27T13:26:31.775Z,7.10
2018-07-27T13:27:31.805Z,6.40
2018-07-27T13:28:31.921Z,6.70
2018-07-27T13:29:31.880Z,6.30
2018-07-27T13:30:31.957Z,7.50
2018-07-27T13:31:31.932Z,7.70
2018-07-27T13:32:31.955Z,7.40
2018-07-27T13:33:31.975Z,7.10
2018-07-27T13:34:32.011Z,7.30
2018-07-27T13:36:32.064Z,8.50